Terminal Aerodrome Forecast
Issued by NWS Cleveland, OH

Home | Current Version | Previous Version | Graphics & Text | Print | Product List | Glossary On
Versions: 1 2 3 4 5 6 7 8 9 10 11
663
FTUS41 KCLE 221728
TAFMFD
TAF
KMFD 221728Z 2218/2318 02010KT P6SM SCT025 OVC150
      TEMPO 2218/2220 BKN025
     FM222300 02007KT P6SM OVC200=

USA.gov is the U.S. government's official web portal to all federal, state and local government web resources and services.